Time;durP1;ratioP1;P1;durP2;ratioP2;P2;SDS_P1;SDS_P2;PMS_P1;PMS_P2;Temp;Humidity;BMP_temperature;BMP_pressure;BME280_temperature;BME280_humidity;BME280_pressure;Samples;Min_cycle;Max_cycle;Signal;HPM_P1;HPM_P2
2022/06/21 00:00:36;;;;;;;3.07;1.10;;;;;;;15.88;50.50;101319.72;4950650;28;97216;-88
2022/06/21 00:03:15;;;;;;;3.80;1.50;;;;;;;15.91;51.16;101327.03;4957916;28;96940;-89
2022/06/21 00:05:44;;;;;;;1.60;1.07;;;;;;;15.86;50.57;101322.25;4970390;28;97124;-88
2022/06/21 00:08:19;;;;;;;1.77;1.17;;;;;;;15.87;51.10;101323.75;4961165;28;98548;-88
2022/06/21 00:10:46;;;;;;;2.03;1.20;;;;;;;15.86;50.55;101333.34;4954311;28;96918;-88
2022/06/21 00:13:15;;;;;;;2.57;1.07;;;;;;;15.85;50.71;101333.88;4957518;28;97079;-87
2022/06/21 00:15:42;;;;;;;1.13;0.90;;;;;;;15.82;50.83;101323.78;4931683;28;97601;-89
2022/06/21 00:18:17;;;;;;;3.90;1.33;;;;;;;15.80;51.46;101321.53;4949375;28;100356;-88
2022/06/21 00:20:43;;;;;;;1.47;1.00;;;;;;;15.73;50.84;101313.72;4949454;28;97515;-89
2022/06/21 00:23:23;;;;;;;1.83;1.10;;;;;;;15.70;51.46;101312.72;4955180;28;96856;-89
2022/06/21 00:25:49;;;;;;;3.43;1.20;;;;;;;15.69;50.88;101316.78;4945904;28;101031;-88
2022/06/21 00:28:15;;;;;;;3.80;1.27;;;;;;;15.66;51.11;101337.22;4946584;28;97957;-88
2022/06/21 00:30:42;;;;;;;1.33;1.00;;;;;;;15.65;51.05;101332.94;4948252;28;97373;-89
2022/06/21 00:33:12;;;;;;;2.70;1.20;;;;;;;15.61;51.34;101317.84;4945473;28;97165;-88
2022/06/21 00:35:41;;;;;;;2.47;0.90;;;;;;;15.61;51.14;101320.63;4945285;28;97079;-89
2022/06/21 00:38:12;;;;;;;2.20;1.00;;;;;;;15.60;51.47;101330.94;4948319;28;96699;-88
2022/06/21 00:40:37;;;;;;;1.80;1.53;;;;;;;15.57;51.15;101331.22;4941956;28;96509;-88
2022/06/21 00:43:09;;;;;;;4.67;1.37;;;;;;;15.59;51.37;101325.91;4951095;28;96978;-88
2022/06/21 00:45:38;;;;;;;4.20;0.77;;;;;;;15.56;51.49;101318.59;4948964;28;102461;-89
2022/06/21 00:48:22;;;;;;;2.23;0.80;;;;;;;15.53;52.42;101319.66;4949333;28;102018;-88
2022/06/21 00:50:53;;;;;;;2.23;1.37;;;;;;;15.50;51.64;101317.88;4938574;28;98913;-88
2022/06/21 00:53:29;;;;;;;4.77;1.07;;;;;;;15.43;52.09;101316.38;4947722;28;96959;-88
2022/06/21 00:56:13;;;;;;;2.53;1.00;;;;;;;15.44;52.32;101322.69;4945703;28;97905;-89
2022/06/21 00:58:38;;;;;;;6.77;1.00;;;;;;;15.42;51.50;101327.97;4948780;28;97463;-88
2022/06/21 01:01:20;;;;;;;1.37;1.20;;;;;;;15.40;52.33;101322.16;4950254;28;99247;-89
2022/06/21 01:03:58;;;;;;;3.63;0.90;;;;;;;15.34;52.43;101316.63;4973748;28;97012;-88
2022/06/21 01:06:43;;;;;;;2.40;0.80;;;;;;;15.30;52.77;101329.25;4958278;28;100680;-88
2022/06/21 01:09:16;;;;;;;1.27;0.93;;;;;;;15.30;52.16;101340.34;4941624;28;101545;-86
2022/06/21 01:11:46;;;;;;;2.63;1.03;;;;;;;15.29;52.19;101341.63;4948800;28;96853;-87
2022/06/21 01:14:14;;;;;;;4.53;1.30;;;;;;;15.27;51.80;101346.91;4949684;28;97054;-87
2022/06/21 01:16:40;;;;;;;1.37;1.00;;;;;;;15.24;51.76;101334.84;4955247;28;97052;-89
2022/06/21 01:19:20;;;;;;;3.90;1.37;;;;;;;15.22;52.36;101333.81;4951859;28;98615;-88
2022/06/21 01:21:50;;;;;;;3.33;1.20;;;;;;;15.15;51.91;101337.09;4956875;28;96658;-88
2022/06/21 01:24:52;;;;;;;1.47;1.37;;;;;;;15.12;52.94;101341.66;4948761;28;97156;-88
2022/06/21 01:27:18;;;;;;;5.60;1.63;;;;;;;15.09;51.94;101339.16;4935294;28;104193;-88
2022/06/21 01:29:45;;;;;;;4.23;1.33;;;;;;;15.04;52.04;101315.72;4952701;28;98612;-89
2022/06/21 01:32:11;;;;;;;3.70;1.23;;;;;;;14.99;52.00;101320.00;4945488;28;96857;-88
2022/06/21 01:34:36;;;;;;;2.33;1.30;;;;;;;14.94;52.23;101342.94;4946253;28;96958;-89
2022/06/21 01:37:10;;;;;;;4.07;1.27;;;;;;;14.92;52.67;101337.13;4953674;28;97396;-88
2022/06/21 01:39:46;;;;;;;1.30;1.20;;;;;;;14.90;52.73;101319.50;4951681;28;97735;-88
2022/06/21 01:42:15;;;;;;;1.67;1.20;;;;;;;14.87;52.49;101348.25;4947942;28;97043;-88
2022/06/21 01:44:48;;;;;;;1.40;1.30;;;;;;;14.86;52.72;101341.19;4936457;28;97243;-88
2022/06/21 01:47:19;;;;;;;4.87;1.23;;;;;;;14.82;52.48;101332.38;4948477;28;97998;-88
2022/06/21 01:49:50;;;;;;;1.33;1.10;;;;;;;14.82;52.72;101333.13;4943455;28;97004;-88
2022/06/21 01:52:23;;;;;;;2.10;1.10;;;;;;;14.81;52.87;101351.00;4960348;28;97207;-89
2022/06/21 01:54:55;;;;;;;2.27;1.30;;;;;;;14.80;52.89;101335.66;4946598;28;96682;-88
2022/06/21 01:57:21;;;;;;;2.37;1.27;;;;;;;14.74;52.61;101357.03;4956037;28;97362;-88
2022/06/21 01:59:50;;;;;;;1.23;1.10;;;;;;;14.75;52.71;101358.56;4952341;28;97953;-87
2022/06/21 02:02:23;;;;;;;6.30;1.23;;;;;;;14.76;53.26;101353.78;4952328;28;96775;-88
2022/06/21 02:04:59;;;;;;;1.57;0.90;;;;;;;14.73;53.00;101335.41;4956808;28;96907;-90
2022/06/21 02:07:30;;;;;;;2.10;1.20;;;;;;;14.64;52.52;101341.94;4949329;28;96833;-88
2022/06/21 02:10:20;;;;;;;4.37;1.30;;;;;;;14.60;53.47;101335.91;4951333;28;96868;-89
2022/06/21 02:13:00;;;;;;;1.37;1.13;;;;;;;14.51;53.49;101311.22;4961136;28;96859;-88
2022/06/21 02:15:36;;;;;;;3.47;1.40;;;;;;;14.51;53.33;101311.22;4963700;28;97005;-88
2022/06/21 02:18:06;;;;;;;1.90;1.10;;;;;;;14.41;52.83;101298.91;4949615;28;96738;-88
2022/06/21 02:20:58;;;;;;;2.10;1.00;;;;;;;14.29;53.23;101278.00;4957156;28;96657;-89
2022/06/21 02:23:24;;;;;;;3.10;1.47;;;;;;;14.24;53.00;101282.25;4949490;28;97237;-88
2022/06/21 02:25:52;;;;;;;2.50;1.03;;;;;;;14.24;53.24;101287.03;4961728;28;96810;-89
2022/06/21 02:28:19;;;;;;;4.73;1.33;;;;;;;14.24;53.22;101287.03;4947519;28;98604;-88
2022/06/21 02:30:47;;;;;;;2.33;1.30;;;;;;;14.18;53.15;101278.72;4949910;28;99608;-87
2022/06/21 02:33:28;;;;;;;1.53;1.30;;;;;;;14.27;53.82;101305.41;4960632;28;97511;-87
2022/06/21 02:36:01;;;;;;;3.73;1.00;;;;;;;14.26;53.14;101298.38;4956474;28;96878;-87
2022/06/21 02:38:32;;;;;;;1.63;1.10;;;;;;;14.23;53.31;101313.97;4949977;28;97614;-87
2022/06/21 02:41:11;;;;;;;3.47;1.40;;;;;;;14.23;53.75;101299.34;4941912;28;97787;-85
2022/06/21 02:43:41;;;;;;;1.40;1.13;;;;;;;14.19;53.17;101298.84;4943620;28;97321;-87
2022/06/21 02:46:12;;;;;;;1.57;1.47;;;;;;;14.17;53.42;101312.44;4949600;28;96996;-86
2022/06/21 02:48:47;;;;;;;1.67;1.40;;;;;;;14.07;53.30;101317.44;4957546;28;97183;-87
2022/06/21 02:51:19;;;;;;;3.37;1.63;;;;;;;14.04;53.44;101307.38;4953035;28;96715;-88
2022/06/21 02:53:59;;;;;;;1.20;0.90;;;;;;;14.02;53.90;101293.28;4948556;28;96990;-87
2022/06/21 02:56:36;;;;;;;3.67;1.30;;;;;;;13.94;53.33;101294.28;4954526;28;96538;-87
2022/06/21 02:59:02;;;;;;;1.23;1.00;;;;;;;13.89;52.93;101317.16;4952092;28;102719;-88
2022/06/21 03:01:34;;;;;;;1.50;1.20;;;;;;;13.88;53.30;101304.56;4945223;28;97328;-89
2022/06/21 03:04:00;;;;;;;3.40;1.20;;;;;;;13.85;53.20;101308.31;4938717;28;97078;-88
2022/06/21 03:06:27;;;;;;;1.60;1.20;;;;;;;13.81;53.40;101316.88;4947844;28;96749;-87
2022/06/21 03:09:06;;;;;;;1.47;1.37;;;;;;;13.75;53.65;101310.56;4948715;28;97046;-88
2022/06/21 03:11:39;;;;;;;1.70;1.30;;;;;;;13.77;53.58;101305.31;4948892;28;97854;-88
2022/06/21 03:14:09;;;;;;;5.53;1.37;;;;;;;13.71;53.45;101323.91;4935421;28;96590;-89
2022/06/21 03:16:34;;;;;;;5.13;1.40;;;;;;;13.70;53.54;101305.00;4949350;28;96776;-87
2022/06/21 03:19:14;;;;;;;3.23;1.43;;;;;;;13.71;53.62;101306.53;4956349;28;99969;-88
2022/06/21 03:21:40;;;;;;;3.90;1.20;;;;;;;13.70;53.52;101300.25;4954184;28;98573;-87
2022/06/21 03:24:15;;;;;;;2.87;1.10;;;;;;;13.69;53.78;101295.97;4945667;28;97193;-87
2022/06/21 03:26:43;;;;;;;2.70;1.07;;;;;;;13.67;53.39;101314.31;4934187;28;97400;-87
2022/06/21 03:29:08;;;;;;;2.37;1.13;;;;;;;13.64;53.58;101310.53;4947947;28;97891;-87
2022/06/21 03:31:39;;;;;;;2.40;1.30;;;;;;;13.70;53.92;101319.59;4937296;28;97190;-87
2022/06/21 03:34:08;;;;;;;1.97;1.10;;;;;;;13.73;53.64;101323.38;4943629;28;97000;-86
2022/06/21 03:36:34;;;;;;;2.83;1.10;;;;;;;13.74;53.65;101327.69;4934032;28;97335;-86
2022/06/21 03:41:42;;;;;;;1.73;1.10;;;;;;;13.77;53.78;101312.84;4947531;28;96806;-87
2022/06/21 03:42:13;;;;;;;1.83;1.30;;;;;;;13.72;53.69;101310.81;4949466;28;102623;-87
2022/06/21 03:44:44;;;;;;;2.07;1.20;;;;;;;13.71;53.89;101309.31;4939883;28;99746;-86
2022/06/21 03:47:25;;;;;;;2.07;1.00;;;;;;;13.75;53.91;101315.34;4949417;28;96902;-87
2022/06/21 03:50:16;;;;;;;4.10;1.77;;;;;;;13.73;54.32;101320.63;4936677;28;103278;-87
2022/06/21 03:52:47;;;;;;;2.40;1.13;;;;;;;13.76;54.14;101319.63;4949812;28;98135;-86
2022/06/21 03:55:29;;;;;;;1.50;1.07;;;;;;;13.73;54.51;101310.31;4944199;28;96765;-85
2022/06/21 03:58:00;;;;;;;4.00;1.27;;;;;;;13.74;53.81;101302.78;4930196;28;98977;-87
2022/06/21 04:00:29;;;;;;;2.20;1.03;;;;;;;13.69;53.85;101309.06;4960909;28;103577;-87
2022/06/21 04:03:03;;;;;;;2.80;1.23;;;;;;;13.68;53.92;101299.22;4944139;28;102256;-86
2022/06/21 04:05:39;;;;;;;2.70;1.40;;;;;;;13.67;54.24;101311.56;4942840;28;96906;-87
2022/06/21 04:08:22;;;;;;;3.23;1.10;;;;;;;13.67;54.10;101306.03;4943963;28;98435;-87
2022/06/21 04:11:06;;;;;;;3.60;1.00;;;;;;;13.71;54.74;101314.84;4939237;28;97205;-85
2022/06/21 04:14:05;;;;;;;3.00;1.30;;;;;;;13.74;54.92;101316.63;4941438;28;103611;-86
2022/06/21 04:16:58;;;;;;;3.87;0.97;;;;;;;13.77;54.55;101315.59;4908999;28;97626;-86
2022/06/21 04:19:44;;;;;;;4.90;1.83;;;;;;;13.77;54.44;101312.84;4948538;28;96918;-87
2022/06/21 04:22:26;;;;;;;1.37;1.13;;;;;;;13.78;54.83;101323.41;4926531;28;97982;-85
2022/06/21 04:25:03;;;;;;;1.67;1.10;;;;;;;13.82;54.49;101323.16;4953806;28;100534;-84
2022/06/21 04:27:35;;;;;;;3.30;1.20;;;;;;;13.87;54.43;101330.75;4941597;28;96451;-83
2022/06/21 04:30:25;;;;;;;1.43;1.33;;;;;;;13.91;55.47;101323.69;4938605;28;98123;-84
2022/06/21 04:33:06;;;;;;;5.83;1.30;;;;;;;13.98;54.71;101316.91;4943383;28;102924;-85
2022/06/21 04:35:40;;;;;;;4.23;1.40;;;;;;;14.00;54.65;101342.81;4943936;28;101621;-85
2022/06/21 04:38:35;;;;;;;1.17;1.17;;;;;;;14.00;55.11;101328.25;4950171;28;96959;-86
2022/06/21 04:41:12;;;;;;;1.37;1.00;;;;;;;14.06;54.68;101329.03;4942092;28;97138;-85
2022/06/21 04:43:49;;;;;;;3.50;0.97;;;;;;;14.08;55.02;101338.34;4948963;28;104136;-83
2022/06/21 04:46:27;;;;;;;6.20;1.37;;;;;;;14.16;55.31;101333.06;4947762;28;104048;-84
2022/06/21 04:49:09;;;;;;;2.07;1.17;;;;;;;14.22;54.92;101339.34;4949668;28;98193;-84
2022/06/21 04:51:49;;;;;;;3.40;0.97;;;;;;;14.27;54.93;101342.16;4967743;28;97354;-86
2022/06/21 04:54:24;;;;;;;1.40;1.00;;;;;;;14.33;55.09;101339.41;4941299;28;100301;-84
2022/06/21 04:57:05;;;;;;;3.37;1.13;;;;;;;14.38;54.92;101335.13;4937063;28;102719;-84
2022/06/21 04:59:35;;;;;;;3.43;1.27;;;;;;;14.41;54.67;101326.59;4945321;28;97123;-86
2022/06/21 05:02:03;;;;;;;7.37;1.17;;;;;;;14.41;54.71;101318.28;4944714;28;97095;-85
2022/06/21 05:04:33;;;;;;;3.83;1.40;;;;;;;14.44;54.78;101320.03;4945400;28;98851;-86
2022/06/21 05:07:03;;;;;;;4.97;1.13;;;;;;;14.48;54.77;101319.78;4949255;28;100834;-85
2022/06/21 05:09:32;;;;;;;7.27;1.20;;;;;;;14.52;54.91;101318.28;4931423;28;96827;-82
2022/06/21 05:12:27;;;;;;;3.27;1.33;;;;;;;14.58;55.55;101324.56;4953173;28;97443;-83
2022/06/21 05:14:58;;;;;;;5.70;2.10;;;;;;;14.64;55.26;101341.94;4933613;28;101180;-82
2022/06/21 05:17:25;;;;;;;6.20;1.50;;;;;;;14.71;54.93;101335.91;4944630;28;97650;-82
2022/06/21 05:19:55;;;;;;;3.77;1.03;;;;;;;14.78;55.03;101335.41;4942493;28;96879;-85
2022/06/21 05:22:32;;;;;;;4.10;1.53;;;;;;;14.84;55.03;101336.16;4957624;28;96985;-85
2022/06/21 05:25:00;;;;;;;3.70;1.07;;;;;;;14.93;55.09;101329.59;4942877;28;98272;-85
2022/06/21 05:27:38;;;;;;;4.63;1.27;;;;;;;15.01;55.54;101366.59;4941667;28;99036;-84
2022/06/21 05:30:18;;;;;;;4.20;1.23;;;;;;;15.09;55.20;101348.22;4936768;28;97343;-84
2022/06/21 05:32:53;;;;;;;3.30;0.97;;;;;;;15.18;55.19;101363.81;4939489;28;96855;-81
2022/06/21 05:35:37;;;;;;;4.73;1.70;;;;;;;15.25;55.82;101371.59;4943390;28;100003;-83
2022/06/21 05:38:23;;;;;;;2.17;1.00;;;;;;;15.33;55.15;101369.84;4939766;28;101973;-83
2022/06/21 05:41:02;;;;;;;4.00;1.23;;;;;;;15.41;55.55;101373.59;4956579;28;97400;-80
2022/06/21 05:43:36;;;;;;;3.27;1.53;;;;;;;15.46;55.15;101373.63;4952939;28;97367;-84
2022/06/21 05:46:09;;;;;;;6.43;1.30;;;;;;;15.53;55.10;101366.78;4943703;28;104102;-83
2022/06/21 05:48:38;;;;;;;5.97;1.23;;;;;;;15.60;54.98;101378.09;4945745;28;103972;-84
2022/06/21 05:51:07;;;;;;;5.10;1.37;;;;;;;15.70;55.05;101362.66;4957189;28;97368;-84
2022/06/21 05:53:40;;;;;;;3.97;1.17;;;;;;;15.82;54.93;101363.38;4943561;28;97281;-84
2022/06/21 05:56:14;;;;;;;4.30;1.60;;;;;;;15.94;55.21;101366.88;4950667;28;96839;-86
2022/06/21 05:58:48;;;;;;;2.50;1.53;;;;;;;16.02;55.30;101373.38;4959462;28;98233;-86
2022/06/21 06:01:34;;;;;;;4.00;1.33;;;;;;;16.10;55.56;101372.31;4956602;28;96956;-83
2022/06/21 06:04:07;;;;;;;6.17;1.57;;;;;;;16.18;54.95;101378.09;4948384;28;97879;-85
2022/06/21 06:06:36;;;;;;;4.13;1.53;;;;;;;16.24;54.59;101392.69;4959153;28;100000;-81
2022/06/21 06:09:09;;;;;;;5.00;1.53;;;;;;;16.25;54.63;101383.84;4942991;28;98887;-84
2022/06/21 06:11:59;;;;;;;4.13;1.20;;;;;;;16.34;54.89;101368.91;4944776;28;96510;-83
2022/06/21 06:14:37;;;;;;;6.03;1.70;;;;;;;16.43;54.86;101374.91;4950033;28;96753;-84
2022/06/21 06:17:13;;;;;;;5.47;1.57;;;;;;;16.49;54.55;101377.63;4949316;28;103551;-83
2022/06/21 06:19:47;;;;;;;4.30;1.87;;;;;;;16.52;54.41;101384.22;4941145;28;101478;-85
2022/06/21 06:22:33;;;;;;;1.87;1.20;;;;;;;16.59;54.77;101378.09;4947521;28;97211;-81
2022/06/21 06:25:19;;;;;;;2.23;1.43;;;;;;;16.66;54.75;101378.31;4943740;28;97417;-84
2022/06/21 06:28:22;;;;;;;3.10;1.43;;;;;;;16.75;54.70;101380.78;4948904;28;100530;-87
2022/06/21 06:31:02;;;;;;;3.00;1.33;;;;;;;16.85;54.48;101375.63;4944361;28;102526;-85
2022/06/21 06:33:43;;;;;;;3.27;1.60;;;;;;;16.91;54.27;101377.09;4928082;28;96877;-86
2022/06/21 06:36:21;;;;;;;3.40;1.70;;;;;;;16.98;54.42;101370.97;4949467;28;97066;-88
2022/06/21 06:38:47;;;;;;;5.60;1.53;;;;;;;17.04;54.10;101376.47;4946246;28;102431;-86
2022/06/21 06:41:21;;;;;;;3.70;1.07;;;;;;;17.15;54.29;101370.78;4948906;28;97395;-89
2022/06/21 06:43:53;;;;;;;1.97;1.20;;;;;;;17.23;54.11;101371.75;4954144;28;97411;-87
2022/06/21 06:46:29;;;;;;;5.20;1.57;;;;;;;17.32;53.99;101371.38;4939260;28;96873;-89
2022/06/21 06:49:06;;;;;;;7.27;1.93;;;;;;;17.43;54.01;101368.47;4944970;28;98500;-84
2022/06/21 06:51:45;;;;;;;5.17;1.67;;;;;;;17.51;53.63;101375.00;4950362;28;102415;-87
2022/06/21 06:54:19;;;;;;;5.50;1.50;;;;;;;17.53;53.59;101391.16;4940839;28;98918;-83
2022/06/21 06:56:55;;;;;;;2.07;1.50;;;;;;;17.54;53.20;101382.28;4946299;28;96904;-82
2022/06/21 06:59:23;;;;;;;3.27;1.30;;;;;;;17.56;53.36;101371.38;4947191;28;99000;-83
2022/06/21 07:01:58;;;;;;;4.33;1.20;;;;;;;17.67;53.28;101379.59;4956814;28;99619;-84
2022/06/21 07:04:31;;;;;;;2.33;1.17;;;;;;;17.76;53.40;101390.38;4949219;28;97153;-86
2022/06/21 07:07:06;;;;;;;2.47;1.20;;;;;;;17.89;53.23;101390.47;4948908;28;97217;-84
2022/06/21 07:09:47;;;;;;;5.13;1.20;;;;;;;18.01;53.05;101381.97;4942487;28;99464;-86
2022/06/21 07:12:20;;;;;;;2.30;1.00;;;;;;;18.10;52.85;101392.75;4945960;28;97498;-84
2022/06/21 07:14:48;;;;;;;4.77;1.17;;;;;;;18.17;52.71;101395.69;4942515;28;96814;-83
2022/06/21 07:17:50;;;;;;;4.80;1.20;;;;;;;18.22;52.63;101400.41;4946370;28;96843;-85
2022/06/21 07:20:32;;;;;;;4.90;1.37;;;;;;;18.33;52.46;101393.94;4968598;28;102903;-84
2022/06/21 07:22:58;;;;;;;5.57;1.50;;;;;;;18.43;52.41;101386.72;4946016;28;102635;-81
2022/06/21 07:25:34;;;;;;;2.60;1.27;;;;;;;18.52;52.25;101391.94;4965114;28;97507;-83
2022/06/21 07:28:25;;;;;;;4.90;1.53;;;;;;;18.61;52.38;101402.66;4945779;28;97301;-83
2022/06/21 07:30:53;;;;;;;3.53;1.97;;;;;;;18.59;51.97;101408.00;4928068;28;102975;-82
2022/06/21 07:33:31;;;;;;;5.23;0.90;;;;;;;18.69;51.83;101390.38;4940418;28;97677;-83
2022/06/21 07:36:03;;;;;;;3.83;1.33;;;;;;;18.79;51.70;101392.75;4949255;28;96767;-83
2022/06/21 07:38:37;;;;;;;3.97;1.00;;;;;;;18.86;51.36;101401.25;4958130;28;97140;-84
2022/06/21 07:41:14;;;;;;;2.30;0.90;;;;;;;18.89;51.45;101391.09;4953949;28;97878;-84
2022/06/21 07:43:48;;;;;;;3.00;0.90;;;;;;;19.07;51.30;101395.81;4945223;28;97584;-83
2022/06/21 07:46:38;;;;;;;3.23;1.23;;;;;;;19.16;50.85;101401.75;4945686;28;97286;-83
2022/06/21 07:49:25;;;;;;;3.37;1.43;;;;;;;19.31;50.68;101398.44;4954328;28;98372;-81
2022/06/21 07:51:54;;;;;;;2.30;1.07;;;;;;;19.42;50.93;101412.22;4951800;28;96884;-84
2022/06/21 07:54:35;;;;;;;2.77;1.10;;;;;;;19.44;50.07;101404.81;4947387;28;96845;-84
2022/06/21 07:57:32;;;;;;;2.67;1.13;;;;;;;19.48;50.29;101395.38;4961610;28;98870;-85
2022/06/21 08:00:13;;;;;;;2.30;1.03;;;;;;;19.59;50.36;101407.09;4926977;28;97534;-83
2022/06/21 08:08:32;;;;;;;2.13;0.80;;;;;;;19.69;49.63;101405.34;4941570;28;97354;-84
2022/06/21 08:11:03;;;;;;;4.30;1.10;;;;;;;19.77;49.87;101411.03;4942522;28;96754;-82
2022/06/21 08:13:30;;;;;;;5.10;1.17;;;;;;;19.81;49.50;101420.59;4954153;28;99493;-87
2022/06/21 08:16:06;;;;;;;3.30;1.17;;;;;;;19.88;49.10;101405.22;4940428;28;98551;-82
2022/06/21 08:19:04;;;;;;;2.50;1.27;;;;;;;19.91;48.73;101418.88;4946734;28;97131;-81
2022/06/21 08:21:46;;;;;;;7.80;1.30;;;;;;;20.00;48.70;101420.47;4958497;28;96136;-86
2022/06/21 08:24:28;;;;;;;3.40;1.00;;;;;;;20.12;48.35;101416.91;4950377;28;99536;-86
2022/06/21 08:27:02;;;;;;;7.07;1.70;;;;;;;20.15;48.32;101424.22;4964497;28;103973;-84
2022/06/21 08:29:50;;;;;;;5.63;0.90;;;;;;;20.20;48.40;101422.59;4949201;28;97864;-85
2022/06/21 08:32:32;;;;;;;5.13;1.17;;;;;;;20.25;47.92;101421.00;4947604;28;97304;-84
2022/06/21 08:35:07;;;;;;;6.43;1.33;;;;;;;20.35;48.13;101406.03;4944795;28;100703;-86
2022/06/21 08:37:41;;;;;;;2.70;1.20;;;;;;;20.48;48.21;101408.00;4942608;28;100298;-85
2022/06/21 08:40:28;;;;;;;4.63;1.03;;;;;;;20.50;47.47;101411.75;4939339;28;98459;-85
2022/06/21 08:43:32;;;;;;;4.50;1.30;;;;;;;20.55;47.99;101404.53;4936940;28;96942;-86
2022/06/21 08:46:36;;;;;;;3.13;1.20;;;;;;;20.65;47.54;101397.19;4902387;28;102360;-84
2022/06/21 08:49:24;;;;;;;2.20;1.00;;;;;;;20.78;46.96;101403.47;4874880;28;102234;-83
2022/06/21 08:52:10;;;;;;;4.03;1.13;;;;;;;20.94;47.05;101409.94;4934963;28;99230;-88
2022/06/21 08:54:54;;;;;;;2.30;0.87;;;;;;;21.11;46.77;101401.16;4949340;28;96973;-84
2022/06/21 08:57:54;;;;;;;2.97;1.33;;;;;;;21.21;46.26;101404.97;4948848;28;104131;-84
2022/06/21 09:00:41;;;;;;;3.20;1.23;;;;;;;21.29;46.04;101423.31;4946247;28;102544;-86
2022/06/21 09:03:14;;;;;;;3.53;0.97;;;;;;;21.31;46.66;101403.16;4961246;28;97640;-85
2022/06/21 09:06:04;;;;;;;2.93;1.40;;;;;;;21.35;45.98;101400.75;4944211;28;97002;-86
2022/06/21 09:08:35;;;;;;;2.47;1.17;;;;;;;21.38;45.83;101396.88;4939015;28;103231;-86
2022/06/21 09:11:20;;;;;;;2.83;0.97;;;;;;;21.47;45.43;101387.97;4962238;28;103392;-87
2022/06/21 09:14:09;;;;;;;1.90;1.00;;;;;;;21.61;45.73;101392.91;4949154;28;96934;-86
2022/06/21 09:16:50;;;;;;;1.87;0.80;;;;;;;21.73;44.74;101382.16;4917460;28;97164;-83
2022/06/21 09:19:37;;;;;;;4.60;1.37;;;;;;;21.85;45.08;101377.75;4948111;28;101976;-85
2022/06/21 09:22:08;;;;;;;2.00;1.00;;;;;;;21.99;45.46;101389.56;4950325;28;97130;-87
2022/06/21 09:24:37;;;;;;;2.63;1.23;;;;;;;22.08;45.25;101395.38;4935519;28;97027;-88
2022/06/21 09:27:23;;;;;;;4.30;1.50;;;;;;;22.22;44.38;101381.97;4947772;28;96998;-86
2022/06/21 09:30:07;;;;;;;4.60;1.40;;;;;;;22.36;44.86;101369.31;4947696;28;100949;-87
2022/06/21 09:32:47;;;;;;;3.70;1.10;;;;;;;22.51;43.96;101371.38;4958026;28;102247;-86
2022/06/21 09:35:24;;;;;;;0.97;0.87;;;;;;;22.70;43.34;101391.44;4942030;28;97109;-85
2022/06/21 09:38:10;;;;;;;3.73;1.10;;;;;;;22.83;43.92;101377.97;4940444;28;96989;-84
2022/06/21 09:40:44;;;;;;;2.40;0.90;;;;;;;22.91;43.39;101378.00;4956717;28;100681;-87
2022/06/21 09:43:22;;;;;;;1.33;0.90;;;;;;;23.00;42.22;101372.56;4937088;28;97189;-86
2022/06/21 09:45:59;;;;;;;1.67;1.10;;;;;;;23.10;42.17;101372.75;4966534;28;96923;-83
2022/06/21 09:48:43;;;;;;;2.30;0.80;;;;;;;23.21;42.64;101377.22;4944313;28;97197;-83
2022/06/21 09:51:17;;;;;;;4.00;1.17;;;;;;;23.25;42.16;101372.72;4947823;28;104404;-87
2022/06/21 09:53:46;;;;;;;4.47;1.17;;;;;;;23.34;42.30;101379.84;4944018;28;103917;-86
2022/06/21 09:56:19;;;;;;;2.10;1.07;;;;;;;23.44;42.23;101384.31;4937742;28;99152;-86
2022/06/21 09:59:09;;;;;;;2.13;0.90;;;;;;;23.54;41.63;101381.69;4943935;28;97497;-84
2022/06/21 10:01:39;;;;;;;2.43;1.00;;;;;;;23.65;41.91;101382.03;4939816;28;103312;-84
2022/06/21 10:04:42;;;;;;;2.00;0.93;;;;;;;23.74;40.52;101380.69;4947936;28;96928;-87
2022/06/21 10:07:46;;;;;;;2.83;0.97;;;;;;;23.88;40.53;101375.53;4958737;28;96751;-86
2022/06/21 10:10:32;;;;;;;2.43;1.00;;;;;;;23.97;40.27;101367.28;4964633;28;97138;-89
2022/06/21 10:12:58;;;;;;;3.07;0.87;;;;;;;23.95;40.84;101364.28;4933361;28;102844;-86
2022/06/21 10:15:43;;;;;;;2.27;1.03;;;;;;;23.98;39.73;101368.03;4944192;28;97333;-85
2022/06/21 10:18:26;;;;;;;3.30;0.90;;;;;;;23.91;39.64;101352.69;4936418;28;100121;-89
2022/06/21 10:21:15;;;;;;;3.23;0.93;;;;;;;23.95;39.90;101353.03;4928865;28;96973;-87
2022/06/21 10:24:02;;;;;;;2.43;0.80;;;;;;;24.07;39.86;101353.41;4940390;28;104346;-86
2022/06/21 10:26:50;;;;;;;2.77;1.03;;;;;;;24.16;39.11;101355.56;4942117;28;97039;-87
2022/06/21 10:29:33;;;;;;;1.17;0.60;;;;;;;24.22;40.36;101370.91;4944340;28;100866;-87
2022/06/21 10:32:27;;;;;;;3.73;0.90;;;;;;;24.20;39.57;101356.66;4941550;28;96922;-87
2022/06/21 10:34:58;;;;;;;1.83;0.77;;;;;;;24.19;40.44;101348.81;4946840;28;100702;-86
2022/06/21 10:37:35;;;;;;;2.80;0.70;;;;;;;24.25;39.59;101355.72;4950855;28;97772;-87
2022/06/21 10:40:19;;;;;;;0.90;0.60;;;;;;;24.31;39.15;101347.06;4941499;28;97516;-88
2022/06/21 10:42:53;;;;;;;2.27;0.83;;;;;;;24.36;39.40;101341.22;4956686;28;96721;-86
2022/06/21 10:45:58;;;;;;;2.50;0.97;;;;;;;24.45;38.77;101339.84;4935567;28;98067;-87
2022/06/21 10:49:00;;;;;;;1.00;0.67;;;;;;;24.55;38.49;101337.91;4965682;28;102655;-86
2022/06/21 10:51:43;;;;;;;0.87;0.67;;;;;;;24.57;38.17;101324.00;4971623;28;97013;-86
2022/06/21 10:54:41;;;;;;;2.50;0.83;;;;;;;24.64;37.86;101325.97;4941287;28;98571;-85
2022/06/21 10:57:41;;;;;;;3.33;0.90;;;;;;;24.54;37.64;101327.94;4950722;28;103100;-88
2022/06/21 11:03:15;;;;;;;1.47;0.80;;;;;;;24.71;38.01;101318.78;4942552;28;96958;-86
2022/06/21 11:06:22;;;;;;;0.90;0.70;;;;;;;24.80;37.64;101313.31;4946105;28;98006;-85
2022/06/21 11:09:01;;;;;;;1.23;0.67;;;;;;;24.83;38.22;101317.03;4929478;28;100975;-86
2022/06/21 11:11:47;;;;;;;1.80;0.70;;;;;;;24.88;35.47;101321.69;4950822;28;102709;-87
2022/06/21 11:14:27;;;;;;;1.47;0.80;;;;;;;24.82;36.47;101302.22;4949727;28;97077;-86
2022/06/21 11:17:16;;;;;;;2.77;0.90;;;;;;;24.90;37.13;101302.16;4948241;28;97153;-87
2022/06/21 11:19:51;;;;;;;2.00;0.80;;;;;;;25.02;36.20;101306.72;4935113;28;102513;-87
2022/06/21 11:23:01;;;;;;;1.13;0.53;;;;;;;25.17;36.38;101305.81;4946949;28;97306;-89
2022/06/21 11:25:49;;;;;;;1.67;0.60;;;;;;;25.16;35.35;101290.97;4953242;28;97515;-86
2022/06/21 11:28:42;;;;;;;1.63;0.77;;;;;;;25.34;35.66;101285.34;4899113;28;98977;-88
2022/06/21 11:31:18;;;;;;;3.37;0.83;;;;;;;25.45;34.78;101271.50;4961424;28;100929;-87
2022/06/21 11:34:05;;;;;;;1.80;0.60;;;;;;;25.57;34.79;101268.94;4947410;28;100666;-88
2022/06/21 11:37:19;;;;;;;1.10;0.60;;;;;;;25.69;34.78;101264.25;4972303;28;96627;-86
2022/06/21 11:40:07;;;;;;;2.60;0.73;;;;;;;25.80;33.95;101275.00;4934552;28;97484;-87
2022/06/21 11:42:42;;;;;;;1.20;0.50;;;;;;;25.93;35.46;101264.09;4943918;28;105262;-88
2022/06/21 11:45:48;;;;;;;2.60;0.87;;;;;;;26.12;34.34;101269.13;4948687;28;99630;-86
2022/06/21 11:48:21;;;;;;;0.90;0.60;;;;;;;26.20;34.98;101275.38;4946193;28;99395;-88
2022/06/21 11:51:11;;;;;;;2.00;0.80;;;;;;;26.24;34.20;101266.47;4941045;28;97296;-86
2022/06/21 11:53:55;;;;;;;0.60;0.40;;;;;;;26.10;34.92;101254.88;4964160;28;100593;-87
2022/06/21 11:56:29;;;;;;;1.63;0.90;;;;;;;26.22;33.83;101261.44;4938486;28;98153;-85
2022/06/21 11:59:18;;;;;;;2.30;0.60;;;;;;;26.35;33.26;101263.09;4945534;28;97880;-88
2022/06/21 12:02:17;;;;;;;1.37;0.50;;;;;;;26.49;33.52;101262.13;4952142;28;97278;-89
2022/06/21 12:04:57;;;;;;;1.17;0.50;;;;;;;26.66;33.00;101264.09;4945170;28;103129;-87
2022/06/21 12:07:46;;;;;;;1.30;1.00;;;;;;;26.78;33.33;101264.28;4945449;28;98171;-89
2022/06/21 12:10:37;;;;;;;3.03;0.57;;;;;;;26.80;33.31;101258.81;4946451;28;99415;-87
2022/06/21 12:13:32;;;;;;;1.10;0.50;;;;;;;26.85;33.34;101263.38;4931687;28;97228;-85
2022/06/21 12:16:20;;;;;;;0.90;0.70;;;;;;;26.82;32.99;101254.06;4944110;28;100933;-88
2022/06/21 12:18:51;;;;;;;1.70;0.60;;;;;;;26.86;33.75;101242.28;4945233;28;100715;-88
2022/06/21 12:21:21;;;;;;;1.10;0.67;;;;;;;26.88;34.04;101248.09;4945912;28;97320;-87
2022/06/21 12:23:55;;;;;;;2.57;0.83;;;;;;;26.95;33.35;101247.22;4954847;28;100703;-87